Maersk Kobe — 9HA3376 — position and weather

sailwx.info

Track history (hours):
 
Tides and Currents Weather Stations Pressure Air Temp Water Temp Dewpoint Dewpoint Depression Visibility Wind Speed Wind Dir Waves Ship Positions

Maersk Kobe

Last reported at 2018-Jun-24 23:25 UTC. Time now 2018-Jun-25 00:25 UTC.
Position N 40°31' E 001°41'.

Length 304 m; draft 11.3 m.

Type: Cargo ship. MMSI: 229521000.

Date/timePositionNaut miles runAvg speedWind from/ knotsBaromVisibWave heightAir tempDewpointWater temp
2018-Jun-24 23:25N 40°31' E 001°41'716.7
2018-Jun-24 23:00N 40°25' E 001°37'4117.2
2018-Jun-24 20:38N 39°48' E 001°12'1317.6
2018-Jun-24 19:52N 39°36' E 001°04'817.9
2018-Jun-24 19:25N 39°29' E 000°60'717.6
2018-Jun-24 18:59N 39°23' E 000°55'817.3
2018-Jun-24 18:30N 39°15' E 000°50'2017.9
2018-Jun-24 17:22N 38°57' E 000°38'718.1
2018-Jun-24 16:58N 38°51' E 000°34'918.3
2018-Jun-24 16:30N 38°43' E 000°28'1018.0
2018-Jun-24 15:57N 38°35' E 000°22'817.6
2018-Jun-24 15:30N 38°28' E 000°16'917.7
2018-Jun-24 15:00N 38°21' E 000°09'917.9
2018-Jun-24 14:30N 38°14' E 000°03'917.7
2018-Jun-24 14:00N 38°07' W 000°03'917.6
2018-Jun-24 13:30N 37°59' W 000°10'917.6
2018-Jun-24 13:00N 37°52' W 000°15'917.8
2018-Jun-24 12:29N 37°44' W 000°22'918.2
2018-Jun-24 12:00N 37°36' W 000°27'917.7
2018-Jun-24 11:30N 37°31' W 000°35'1018.0
2018-Jun-24 10:58N 37°24' W 000°44'817.6
2018-Jun-24 10:30N 37°19' W 000°52'917.8
2018-Jun-24 10:00N 37°13' W 001°01'35117.2
2018-Jun-23 13:37N 36°19' W 008°13'217.9
2018-Jun-23 13:29N 36°20' W 008°16'1017.9
2018-Jun-23 12:55N 36°22' W 008°29'718.0
2018-Jun-23 12:31N 36°25' W 008°37'917.9
2018-Jun-23 11:59N 36°28' W 008°48'917.9
2018-Jun-23 11:27N 36°30' W 008°59'2817.1
2018-Jun-23 09:48N 36°45' W 009°29'1116.7
2018-Jun-23 09:10N 36°55' W 009°33'716.5
2018-Jun-23 08:44N 37°02' W 009°33'1416.8
2018-Jun-23 07:53N 37°14' W 009°23'617.3
2018-Jun-23 07:30N 37°20' W 009°18'917.3
2018-Jun-23 07:00N 37°27' W 009°12'917.2
2018-Jun-23 06:30N 37°34' W 009°06'917.1
2018-Jun-23 06:00N 37°41' W 009°00'917.6
2018-Jun-23 05:30N 37°49' W 008°54'714.7
2018-Jun-23 05:00N 37°55' W 008°50'1 1.3
2018-Jun-23 04:29N 37°56' W 008°51'0 0.0
2018-Jun-23 03:59N 37°56' W 008°51'0 0.0
2018-Jun-23 03:29N 37°56' W 008°51'0 0.0
2018-Jun-23 02:59N 37°56' W 008°51'0 0.0
2018-Jun-23 02:29N 37°56' W 008°51'0 0.0
2018-Jun-23 01:59N 37°56' W 008°51'0 0.0
2018-Jun-23 01:29N 37°56' W 008°51'0 0.0
2018-Jun-23 00:59N 37°56' W 008°51'0 0.0
2018-Jun-23 00:29N 37°56' W 008°51'0 0.0
2018-Jun-22 23:59N 37°56' W 008°51'0 0.0
2018-Jun-22 23:29N 37°56' W 008°51'0 0.0
2018-Jun-22 22:59N 37°56' W 008°51'0 0.0
2018-Jun-22 22:29N 37°56' W 008°51'0 0.0
2018-Jun-22 21:59N 37°56' W 008°51'0 0.0
2018-Jun-22 21:29N 37°56' W 008°51'0 0.0
2018-Jun-22 20:59N 37°56' W 008°51'0 0.0
2018-Jun-22 20:29N 37°56' W 008°51'0 0.0
2018-Jun-22 19:59N 37°56' W 008°51'0 0.0
2018-Jun-22 19:29N 37°56' W 008°51'0 0.0
2018-Jun-22 18:59N 37°56' W 008°51'0 0.5
2018-Jun-22 18:30N 37°56' W 008°50'2 3.7
2018-Jun-22 18:00N 37°54' W 008°51'2 3.2
2018-Jun-22 17:30N 37°54' W 008°54'510.2
2018-Jun-22 17:00N 37°55' W 008°60'917.4
2018-Jun-22 16:31N 37°56' W 009°11'917.9
2018-Jun-22 16:01N 37°58' W 009°22'917.4
2018-Jun-22 15:30N 37°60' W 009°33'917.7
2018-Jun-22 15:00N 38°02' W 009°44'917.5
2018-Jun-22 14:30N 38°03' W 009°55'815.9
2018-Jun-22 14:00N 38°05' W 010°04'816.0
2018-Jun-22 13:30N 38°07' W 010°14'816.3
2018-Jun-22 13:00N 38°08' W 010°24'816.2
2018-Jun-22 12:30N 38°10' W 010°35'816.4
2018-Jun-22 12:00N 38°11' W 010°45'68015.9
2018-Jun-20 17:10N 39°21' W 025°13'5815.0
2018-Jun-20 13:19N 39°22' W 026°27'3815.9
2018-Jun-20 10:58N 39°21' W 027°16'816.1
2018-Jun-20 10:30N 39°21' W 027°25'815.8
2018-Jun-20 10:00N 39°21' W 027°36'816.6
2018-Jun-20 09:30N 39°20' W 027°46'917.2
2018-Jun-20 09:00N 39°20' W 027°57'917.3
2018-Jun-20 08:31N 39°19' W 028°08'816.9
2018-Jun-20 08:00N 39°18' W 028°19'817.0
2018-Jun-20 07:30N 39°17' W 028°30'917.1
2018-Jun-20 07:00N 39°17' W 028°41'917.3
2018-Jun-20 06:30N 39°17' W 028°52'917.1
2018-Jun-20 06:00N 39°16' W 029°03'917.3
2018-Jun-20 05:30N 39°16' W 029°14'917.1
2018-Jun-20 05:00N 39°15' W 029°25'816.5
2018-Jun-20 04:30N 39°15' W 029°36'816.8
2018-Jun-20 04:00N 39°14' W 029°47'816.7
2018-Jun-20 03:30N 39°13' W 029°58'816.3
2018-Jun-20 03:00N 39°13' W 030°08'816.7
2018-Jun-20 02:30N 39°12' W 030°19'816.2
2018-Jun-20 02:00N 39°11' W 030°29'816.4
2018-Jun-20 01:30N 39°10' W 030°40'916.2
2018-Jun-20 00:59N 39°09' W 030°51'816.1
2018-Jun-20 00:30N 39°09' W 031°01'916.3
2018-Jun-19 23:56N 39°08' W 031°13'816.7
2018-Jun-19 23:26N 39°07' W 031°23'716.8
2018-Jun-19 23:00N 39°06' W 031°32'1116.4
2018-Jun-19 22:21N 39°05' W 031°46'  
Track history (hours):
 
Tides and Currents Weather Stations Pressure Air Temp Water Temp Dewpoint Dewpoint Depression Visibility Wind Speed Wind Dir Waves Ship Positions

Maersk Kobe

Last reported at 2018-Jun-24 23:25 UTC. Time now 2018-Jun-25 00:25 UTC.
Position N 40°31' E 001°41'.

Length 304 m; draft 11.3 m.

Type: Cargo ship. MMSI: 229521000.

Date/timePositionNaut miles runAvg speedWind from/ knotsBaromVisibWave heightAir tempDewpointWater temp
2018-Jun-24 23:25N 40°31' E 001°41'716.7
2018-Jun-24 23:00N 40°25' E 001°37'4117.2
2018-Jun-24 20:38N 39°48' E 001°12'1317.6
2018-Jun-24 19:52N 39°36' E 001°04'817.9
2018-Jun-24 19:25N 39°29' E 000°60'717.6
2018-Jun-24 18:59N 39°23' E 000°55'817.3
2018-Jun-24 18:30N 39°15' E 000°50'2017.9
2018-Jun-24 17:22N 38°57' E 000°38'718.1
2018-Jun-24 16:58N 38°51' E 000°34'918.3
2018-Jun-24 16:30N 38°43' E 000°28'1018.0
2018-Jun-24 15:57N 38°35' E 000°22'817.6
2018-Jun-24 15:30N 38°28' E 000°16'917.7
2018-Jun-24 15:00N 38°21' E 000°09'917.9
2018-Jun-24 14:30N 38°14' E 000°03'917.7
2018-Jun-24 14:00N 38°07' W 000°03'917.6
2018-Jun-24 13:30N 37°59' W 000°10'917.6
2018-Jun-24 13:00N 37°52' W 000°15'917.8
2018-Jun-24 12:29N 37°44' W 000°22'918.2
2018-Jun-24 12:00N 37°36' W 000°27'917.7
2018-Jun-24 11:30N 37°31' W 000°35'1018.0
2018-Jun-24 10:58N 37°24' W 000°44'817.6
2018-Jun-24 10:30N 37°19' W 000°52'917.8
2018-Jun-24 10:00N 37°13' W 001°01'35117.2
2018-Jun-23 13:37N 36°19' W 008°13'217.9
2018-Jun-23 13:29N 36°20' W 008°16'1017.9
2018-Jun-23 12:55N 36°22' W 008°29'718.0
2018-Jun-23 12:31N 36°25' W 008°37'917.9
2018-Jun-23 11:59N 36°28' W 008°48'917.9
2018-Jun-23 11:27N 36°30' W 008°59'2817.1
2018-Jun-23 09:48N 36°45' W 009°29'1116.7
2018-Jun-23 09:10N 36°55' W 009°33'716.5
2018-Jun-23 08:44N 37°02' W 009°33'1416.8
2018-Jun-23 07:53N 37°14' W 009°23'617.3
2018-Jun-23 07:30N 37°20' W 009°18'917.3
2018-Jun-23 07:00N 37°27' W 009°12'917.2
2018-Jun-23 06:30N 37°34' W 009°06'917.1
2018-Jun-23 06:00N 37°41' W 009°00'917.6
2018-Jun-23 05:30N 37°49' W 008°54'714.7
2018-Jun-23 05:00N 37°55' W 008°50'1 1.3
2018-Jun-23 04:29N 37°56' W 008°51'0 0.0
2018-Jun-23 03:59N 37°56' W 008°51'0 0.0
2018-Jun-23 03:29N 37°56' W 008°51'0 0.0
2018-Jun-23 02:59N 37°56' W 008°51'0 0.0
2018-Jun-23 02:29N 37°56' W 008°51'0 0.0
2018-Jun-23 01:59N 37°56' W 008°51'0 0.0
2018-Jun-23 01:29N 37°56' W 008°51'0 0.0
2018-Jun-23 00:59N 37°56' W 008°51'0 0.0
2018-Jun-23 00:29N 37°56' W 008°51'0 0.0
2018-Jun-22 23:59N 37°56' W 008°51'0 0.0
2018-Jun-22 23:29N 37°56' W 008°51'0 0.0
2018-Jun-22 22:59N 37°56' W 008°51'0 0.0
2018-Jun-22 22:29N 37°56' W 008°51'0 0.0
2018-Jun-22 21:59N 37°56' W 008°51'0 0.0
2018-Jun-22 21:29N 37°56' W 008°51'0 0.0
2018-Jun-22 20:59N 37°56' W 008°51'0 0.0
2018-Jun-22 20:29N 37°56' W 008°51'0 0.0
2018-Jun-22 19:59N 37°56' W 008°51'0 0.0
2018-Jun-22 19:29N 37°56' W 008°51'0 0.0
2018-Jun-22 18:59N 37°56' W 008°51'0 0.5
2018-Jun-22 18:30N 37°56' W 008°50'2 3.7
2018-Jun-22 18:00N 37°54' W 008°51'2 3.2
2018-Jun-22 17:30N 37°54' W 008°54'510.2
2018-Jun-22 17:00N 37°55' W 008°60'917.4
2018-Jun-22 16:31N 37°56' W 009°11'917.9
2018-Jun-22 16:01N 37°58' W 009°22'917.4
2018-Jun-22 15:30N 37°60' W 009°33'917.7
2018-Jun-22 15:00N 38°02' W 009°44'917.5
2018-Jun-22 14:30N 38°03' W 009°55'815.9
2018-Jun-22 14:00N 38°05' W 010°04'816.0
2018-Jun-22 13:30N 38°07' W 010°14'816.3
2018-Jun-22 13:00N 38°08' W 010°24'816.2
2018-Jun-22 12:30N 38°10' W 010°35'816.4
2018-Jun-22 12:00N 38°11' W 010°45'68015.9
2018-Jun-20 17:10N 39°21' W 025°13'5815.0
2018-Jun-20 13:19N 39°22' W 026°27'3815.9
2018-Jun-20 10:58N 39°21' W 027°16'816.1
2018-Jun-20 10:30N 39°21' W 027°25'815.8
2018-Jun-20 10:00N 39°21' W 027°36'816.6
2018-Jun-20 09:30N 39°20' W 027°46'917.2
2018-Jun-20 09:00N 39°20' W 027°57'917.3
2018-Jun-20 08:31N 39°19' W 028°08'816.9
2018-Jun-20 08:00N 39°18' W 028°19'817.0
2018-Jun-20 07:30N 39°17' W 028°30'917.1
2018-Jun-20 07:00N 39°17' W 028°41'917.3
2018-Jun-20 06:30N 39°17' W 028°52'917.1
2018-Jun-20 06:00N 39°16' W 029°03'917.3
2018-Jun-20 05:30N 39°16' W 029°14'917.1
2018-Jun-20 05:00N 39°15' W 029°25'816.5
2018-Jun-20 04:30N 39°15' W 029°36'816.8
2018-Jun-20 04:00N 39°14' W 029°47'816.7
2018-Jun-20 03:30N 39°13' W 029°58'816.3
2018-Jun-20 03:00N 39°13' W 030°08'816.7
2018-Jun-20 02:30N 39°12' W 030°19'816.2
2018-Jun-20 02:00N 39°11' W 030°29'816.4
2018-Jun-20 01:30N 39°10' W 030°40'916.2
2018-Jun-20 00:59N 39°09' W 030°51'816.1
2018-Jun-20 00:30N 39°09' W 031°01'916.3
2018-Jun-19 23:56N 39°08' W 031°13'816.7
2018-Jun-19 23:26N 39°07' W 031°23'716.8
2018-Jun-19 23:00N 39°06' W 031°32'1116.4
2018-Jun-19 22:21N 39°05' W 031°46'  

Dump ship's entire track history